Decoded Metar for KRCA (RAPID CITY in SD, USA) (IATA:RCA) | Meteo·Mobile Aviation Weather
aviador You're here:

KRCA Decoded Metar

RAPID CITY in SD, USA
Report Time2019-05-23 11:26:00
UTC Time2019-05-23 11:57:26
Flight Rules vfr VFR
Wind350° at 06 kt
W.Decomp.*RWY 31: 5.2 kt HW 2.9 kt RCW
Visibility9999 m
Phenomena:N/A
Clouds:Scattered 025 Hf
Overcast 037 Hf
Ceiling3,700 ft
Temp06°C (ISA -3)
Dew Point06°C (100% RH)
AAT2.9°C
QNH1019 hPa
Density Alt2,917 ft
Elevation3,278 ft
Report Wrong Elevation
Raw Report
SPECI KRCA 231126Z AUTO 35006KT 10SM SCT025 OVC037 06/06 A3009 RMK
AO2 SLP203 $=

Extra information for KRCA:More info

Metar Taf Metar & Taf Last 4 Metars F.Rules Stats Wind Profile Meteogram Temp Stats Airport Information Weather charts Add Link Nearby VenuesMetar ALERT Operation Metar Decoded Social comments

AIRNAV info for KRCA